sensor_id;sensor_type;location;lat;lon;timestamp;P1;durP1;ratioP1;P2;durP2;ratioP2
23113;SDS011;11726;50.122;8.832;2024-02-26T00:01:54;2.45;;;1.10;;
23113;SDS011;11726;50.122;8.832;2024-02-26T00:04:21;6.57;;;1.40;;
23113;SDS011;11726;50.122;8.832;2024-02-26T00:06:48;2.85;;;1.30;;
23113;SDS011;11726;50.122;8.832;2024-02-26T00:09:17;3.03;;;1.38;;
23113;SDS011;11726;50.122;8.832;2024-02-26T00:11:44;1.65;;;1.02;;
23113;SDS011;11726;50.122;8.832;2024-02-26T00:14:11;4.80;;;1.20;;
23113;SDS011;11726;50.122;8.832;2024-02-26T00:16:39;2.25;;;1.05;;
23113;SDS011;11726;50.122;8.832;2024-02-26T00:19:07;2.70;;;1.10;;
23113;SDS011;11726;50.122;8.832;2024-02-26T00:21:35;2.47;;;1.42;;
23113;SDS011;11726;50.122;8.832;2024-02-26T00:24:05;2.85;;;1.15;;
23113;SDS011;11726;50.122;8.832;2024-02-26T00:26:32;3.35;;;1.13;;
23113;SDS011;11726;50.122;8.832;2024-02-26T00:28:59;3.65;;;1.20;;
23113;SDS011;11726;50.122;8.832;2024-02-26T00:31:25;1.95;;;1.50;;
23113;SDS011;11726;50.122;8.832;2024-02-26T00:33:52;1.48;;;1.10;;
23113;SDS011;11726;50.122;8.832;2024-02-26T00:36:19;3.53;;;1.35;;
23113;SDS011;11726;50.122;8.832;2024-02-26T00:38:46;2.10;;;1.35;;
23113;SDS011;11726;50.122;8.832;2024-02-26T00:41:17;3.35;;;1.65;;
23113;SDS011;11726;50.122;8.832;2024-02-26T00:43:44;3.03;;;1.40;;
23113;SDS011;11726;50.122;8.832;2024-02-26T00:46:11;2.05;;;1.23;;
23113;SDS011;11726;50.122;8.832;2024-02-26T00:48:38;2.58;;;1.48;;
23113;SDS011;11726;50.122;8.832;2024-02-26T00:51:05;3.05;;;1.30;;
23113;SDS011;11726;50.122;8.832;2024-02-26T00:53:32;2.65;;;1.27;;
23113;SDS011;11726;50.122;8.832;2024-02-26T00:55:59;2.30;;;1.52;;
23113;SDS011;11726;50.122;8.832;2024-02-26T00:58:25;1.98;;;1.33;;
23113;SDS011;11726;50.122;8.832;2024-02-26T01:00:52;2.58;;;1.20;;
23113;SDS011;11726;50.122;8.832;2024-02-26T01:03:19;1.67;;;1.10;;
23113;SDS011;11726;50.122;8.832;2024-02-26T01:05:46;3.00;;;1.75;;
23113;SDS011;11726;50.122;8.832;2024-02-26T01:08:13;3.20;;;1.70;;
23113;SDS011;11726;50.122;8.832;2024-02-26T01:10:40;2.67;;;1.80;;
23113;SDS011;11726;50.122;8.832;2024-02-26T01:13:06;2.50;;;1.23;;
23113;SDS011;11726;50.122;8.832;2024-02-26T01:15:34;2.15;;;1.45;;
23113;SDS011;11726;50.122;8.832;2024-02-26T01:18:00;2.38;;;1.80;;
23113;SDS011;11726;50.122;8.832;2024-02-26T01:20:27;2.60;;;1.65;;
23113;SDS011;11726;50.122;8.832;2024-02-26T01:22:54;2.65;;;1.10;;
23113;SDS011;11726;50.122;8.832;2024-02-26T01:25:20;1.52;;;1.10;;
23113;SDS011;11726;50.122;8.832;2024-02-26T01:27:47;3.33;;;1.08;;
23113;SDS011;11726;50.122;8.832;2024-02-26T01:30:14;1.92;;;0.85;;
23113;SDS011;11726;50.122;8.832;2024-02-26T01:32:43;2.35;;;0.70;;
23113;SDS011;11726;50.122;8.832;2024-02-26T01:35:10;1.10;;;0.90;;
23113;SDS011;11726;50.122;8.832;2024-02-26T01:37:38;0.90;;;0.70;;
23113;SDS011;11726;50.122;8.832;2024-02-26T01:40:05;2.92;;;1.08;;
23113;SDS011;11726;50.122;8.832;2024-02-26T01:42:33;1.58;;;1.02;;
23113;SDS011;11726;50.122;8.832;2024-02-26T01:45:00;1.92;;;0.98;;
23113;SDS011;11726;50.122;8.832;2024-02-26T01:47:27;2.10;;;0.90;;
23113;SDS011;11726;50.122;8.832;2024-02-26T01:49:54;3.13;;;0.85;;
23113;SDS011;11726;50.122;8.832;2024-02-26T01:52:22;4.15;;;1.83;;
23113;SDS011;11726;50.122;8.832;2024-02-26T01:54:48;2.35;;;1.55;;
23113;SDS011;11726;50.122;8.832;2024-02-26T01:57:16;4.13;;;1.40;;
23113;SDS011;11726;50.122;8.832;2024-02-26T01:59:43;1.85;;;0.82;;
23113;SDS011;11726;50.122;8.832;2024-02-26T02:02:10;1.50;;;0.95;;
23113;SDS011;11726;50.122;8.832;2024-02-26T02:04:38;2.75;;;1.40;;
23113;SDS011;11726;50.122;8.832;2024-02-26T02:07:05;1.50;;;0.85;;
23113;SDS011;11726;50.122;8.832;2024-02-26T02:09:32;1.35;;;0.70;;
23113;SDS011;11726;50.122;8.832;2024-02-26T02:11:59;1.10;;;0.75;;
23113;SDS011;11726;50.122;8.832;2024-02-26T02:14:26;3.35;;;1.10;;
23113;SDS011;11726;50.122;8.832;2024-02-26T02:16:53;1.88;;;1.08;;
23113;SDS011;11726;50.122;8.832;2024-02-26T02:19:20;1.60;;;0.98;;
23113;SDS011;11726;50.122;8.832;2024-02-26T02:21:46;2.05;;;1.17;;
23113;SDS011;11726;50.122;8.832;2024-02-26T02:24:13;1.67;;;0.82;;
23113;SDS011;11726;50.122;8.832;2024-02-26T02:26:40;1.65;;;1.00;;
23113;SDS011;11726;50.122;8.832;2024-02-26T02:29:07;2.40;;;1.00;;
23113;SDS011;11726;50.122;8.832;2024-02-26T02:31:35;1.52;;;0.98;;
23113;SDS011;11726;50.122;8.832;2024-02-26T02:34:02;2.67;;;1.02;;
23113;SDS011;11726;50.122;8.832;2024-02-26T02:36:30;2.67;;;1.10;;
23113;SDS011;11726;50.122;8.832;2024-02-26T02:38:56;3.08;;;1.13;;
23113;SDS011;11726;50.122;8.832;2024-02-26T02:41:23;2.05;;;1.23;;
23113;SDS011;11726;50.122;8.832;2024-02-26T02:43:50;3.42;;;1.20;;
23113;SDS011;11726;50.122;8.832;2024-02-26T02:46:17;3.05;;;1.52;;
23113;SDS011;11726;50.122;8.832;2024-02-26T02:48:43;2.10;;;1.30;;
23113;SDS011;11726;50.122;8.832;2024-02-26T02:51:10;2.25;;;1.10;;
23113;SDS011;11726;50.122;8.832;2024-02-26T02:53:37;1.90;;;1.10;;
23113;SDS011;11726;50.122;8.832;2024-02-26T02:56:04;1.80;;;1.08;;
23113;SDS011;11726;50.122;8.832;2024-02-26T02:58:31;2.70;;;1.08;;
23113;SDS011;11726;50.122;8.832;2024-02-26T03:00:58;2.22;;;1.10;;
23113;SDS011;11726;50.122;8.832;2024-02-26T03:03:27;2.17;;;1.13;;
23113;SDS011;11726;50.122;8.832;2024-02-26T03:05:55;0.85;;;0.80;;
23113;SDS011;11726;50.122;8.832;2024-02-26T03:08:21;1.98;;;1.08;;
23113;SDS011;11726;50.122;8.832;2024-02-26T03:10:48;2.25;;;1.25;;
23113;SDS011;11726;50.122;8.832;2024-02-26T03:13:15;2.42;;;1.20;;
23113;SDS011;11726;50.122;8.832;2024-02-26T03:15:41;1.73;;;1.20;;
23113;SDS011;11726;50.122;8.832;2024-02-26T03:18:08;2.25;;;1.20;;
23113;SDS011;11726;50.122;8.832;2024-02-26T03:20:35;1.17;;;1.00;;
23113;SDS011;11726;50.122;8.832;2024-02-26T03:23:03;1.77;;;1.05;;
23113;SDS011;11726;50.122;8.832;2024-02-26T03:25:30;2.80;;;1.20;;
23113;SDS011;11726;50.122;8.832;2024-02-26T03:27:56;5.03;;;1.13;;
23113;SDS011;11726;50.122;8.832;2024-02-26T03:30:23;2.60;;;1.02;;
23113;SDS011;11726;50.122;8.832;2024-02-26T03:32:50;2.63;;;1.30;;
23113;SDS011;11726;50.122;8.832;2024-02-26T03:35:17;2.65;;;1.30;;
23113;SDS011;11726;50.122;8.832;2024-02-26T03:37:43;2.05;;;1.10;;
23113;SDS011;11726;50.122;8.832;2024-02-26T03:40:12;1.88;;;1.20;;
23113;SDS011;11726;50.122;8.832;2024-02-26T03:42:40;2.55;;;1.40;;
23113;SDS011;11726;50.122;8.832;2024-02-26T03:45:07;1.05;;;0.90;;
23113;SDS011;11726;50.122;8.832;2024-02-26T03:47:37;1.63;;;1.02;;
23113;SDS011;11726;50.122;8.832;2024-02-26T03:50:05;2.17;;;1.25;;
23113;SDS011;11726;50.122;8.832;2024-02-26T03:52:33;1.75;;;1.17;;
23113;SDS011;11726;50.122;8.832;2024-02-26T03:55:00;0.95;;;0.85;;
23113;SDS011;11726;50.122;8.832;2024-02-26T03:57:26;2.25;;;1.25;;
23113;SDS011;11726;50.122;8.832;2024-02-26T03:59:53;1.70;;;1.15;;
23113;SDS011;11726;50.122;8.832;2024-02-26T04:02:20;3.90;;;1.67;;
23113;SDS011;11726;50.122;8.832;2024-02-26T04:04:46;1.55;;;1.13;;
23113;SDS011;11726;50.122;8.832;2024-02-26T04:07:14;2.63;;;1.48;;
23113;SDS011;11726;50.122;8.832;2024-02-26T04:09:40;1.92;;;1.20;;
23113;SDS011;11726;50.122;8.832;2024-02-26T04:12:07;4.45;;;1.42;;
23113;SDS011;11726;50.122;8.832;2024-02-26T04:14:35;2.55;;;1.23;;
23113;SDS011;11726;50.122;8.832;2024-02-26T04:17:02;4.60;;;1.50;;
23113;SDS011;11726;50.122;8.832;2024-02-26T04:19:29;2.13;;;1.35;;
23113;SDS011;11726;50.122;8.832;2024-02-26T04:21:56;1.90;;;1.35;;
23113;SDS011;11726;50.122;8.832;2024-02-26T04:24:22;2.05;;;1.27;;
23113;SDS011;11726;50.122;8.832;2024-02-26T04:26:49;1.75;;;1.50;;
23113;SDS011;11726;50.122;8.832;2024-02-26T04:29:16;4.90;;;1.60;;
23113;SDS011;11726;50.122;8.832;2024-02-26T04:31:43;4.05;;;1.70;;
23113;SDS011;11726;50.122;8.832;2024-02-26T04:34:09;2.83;;;1.48;;
23113;SDS011;11726;50.122;8.832;2024-02-26T04:36:40;7.13;;;1.75;;
23113;SDS011;11726;50.122;8.832;2024-02-26T04:39:06;3.05;;;1.58;;
23113;SDS011;11726;50.122;8.832;2024-02-26T04:41:34;2.10;;;1.48;;
23113;SDS011;11726;50.122;8.832;2024-02-26T04:44:00;2.55;;;1.35;;
23113;SDS011;11726;50.122;8.832;2024-02-26T04:46:27;2.55;;;1.45;;
23113;SDS011;11726;50.122;8.832;2024-02-26T04:48:54;2.30;;;1.40;;
23113;SDS011;11726;50.122;8.832;2024-02-26T04:51:23;2.50;;;1.40;;
23113;SDS011;11726;50.122;8.832;2024-02-26T04:53:50;2.90;;;1.55;;
23113;SDS011;11726;50.122;8.832;2024-02-26T04:56:17;2.85;;;1.42;;
23113;SDS011;11726;50.122;8.832;2024-02-26T04:58:44;2.50;;;1.40;;
23113;SDS011;11726;50.122;8.832;2024-02-26T05:01:10;4.22;;;1.40;;
23113;SDS011;11726;50.122;8.832;2024-02-26T05:03:37;1.67;;;1.20;;
23113;SDS011;11726;50.122;8.832;2024-02-26T05:06:05;3.05;;;1.50;;
23113;SDS011;11726;50.122;8.832;2024-02-26T05:08:32;2.90;;;1.80;;
23113;SDS011;11726;50.122;8.832;2024-02-26T05:10:59;1.58;;;1.15;;
23113;SDS011;11726;50.122;8.832;2024-02-26T05:13:26;2.85;;;1.60;;
23113;SDS011;11726;50.122;8.832;2024-02-26T05:15:53;1.85;;;1.23;;
23113;SDS011;11726;50.122;8.832;2024-02-26T05:18:20;2.22;;;1.35;;
23113;SDS011;11726;50.122;8.832;2024-02-26T05:20:48;3.03;;;1.60;;
23113;SDS011;11726;50.122;8.832;2024-02-26T05:23:14;3.53;;;1.45;;
23113;SDS011;11726;50.122;8.832;2024-02-26T05:25:41;3.00;;;1.50;;
23113;SDS011;11726;50.122;8.832;2024-02-26T05:28:07;2.67;;;1.70;;
23113;SDS011;11726;50.122;8.832;2024-02-26T05:30:35;1.83;;;1.48;;
23113;SDS011;11726;50.122;8.832;2024-02-26T05:33:01;3.72;;;1.40;;
23113;SDS011;11726;50.122;8.832;2024-02-26T05:35:28;4.32;;;1.48;;
23113;SDS011;11726;50.122;8.832;2024-02-26T05:37:55;2.20;;;1.42;;
23113;SDS011;11726;50.122;8.832;2024-02-26T05:40:21;2.33;;;1.63;;
23113;SDS011;11726;50.122;8.832;2024-02-26T05:42:48;4.72;;;1.55;;
23113;SDS011;11726;50.122;8.832;2024-02-26T05:45:15;3.97;;;1.90;;
23113;SDS011;11726;50.122;8.832;2024-02-26T05:47:42;4.10;;;1.90;;
23113;SDS011;11726;50.122;8.832;2024-02-26T05:50:09;3.13;;;1.70;;
23113;SDS011;11726;50.122;8.832;2024-02-26T05:52:37;2.75;;;1.70;;
23113;SDS011;11726;50.122;8.832;2024-02-26T05:55:07;2.95;;;1.75;;
23113;SDS011;11726;50.122;8.832;2024-02-26T05:57:35;2.92;;;1.77;;
23113;SDS011;11726;50.122;8.832;2024-02-26T06:00:02;3.22;;;1.67;;
23113;SDS011;11726;50.122;8.832;2024-02-26T06:02:32;2.75;;;1.70;;
23113;SDS011;11726;50.122;8.832;2024-02-26T06:04:58;3.63;;;1.98;;
23113;SDS011;11726;50.122;8.832;2024-02-26T06:07:25;2.85;;;1.42;;
23113;SDS011;11726;50.122;8.832;2024-02-26T06:09:52;4.60;;;2.05;;
23113;SDS011;11726;50.122;8.832;2024-02-26T06:12:18;3.60;;;1.95;;
23113;SDS011;11726;50.122;8.832;2024-02-26T06:14:45;4.90;;;1.90;;
23113;SDS011;11726;50.122;8.832;2024-02-26T06:17:12;3.40;;;1.95;;
23113;SDS011;11726;50.122;8.832;2024-02-26T06:19:39;5.18;;;2.17;;
23113;SDS011;11726;50.122;8.832;2024-02-26T06:22:05;3.60;;;1.75;;
23113;SDS011;11726;50.122;8.832;2024-02-26T06:24:32;4.40;;;2.10;;
23113;SDS011;11726;50.122;8.832;2024-02-26T06:26:59;5.45;;;2.15;;
23113;SDS011;11726;50.122;8.832;2024-02-26T06:29:25;2.38;;;1.83;;
23113;SDS011;11726;50.122;8.832;2024-02-26T06:31:52;2.80;;;2.10;;
23113;SDS011;11726;50.122;8.832;2024-02-26T06:34:19;2.55;;;1.70;;
23113;SDS011;11726;50.122;8.832;2024-02-26T06:36:46;2.30;;;1.73;;
23113;SDS011;11726;50.122;8.832;2024-02-26T06:39:13;4.00;;;1.90;;
23113;SDS011;11726;50.122;8.832;2024-02-26T06:41:41;2.53;;;1.60;;
23113;SDS011;11726;50.122;8.832;2024-02-26T06:44:08;2.53;;;1.33;;
23113;SDS011;11726;50.122;8.832;2024-02-26T06:46:34;2.08;;;1.45;;
23113;SDS011;11726;50.122;8.832;2024-02-26T06:49:01;3.35;;;1.55;;
23113;SDS011;11726;50.122;8.832;2024-02-26T06:51:28;2.47;;;1.30;;
23113;SDS011;11726;50.122;8.832;2024-02-26T06:53:55;5.10;;;1.67;;
23113;SDS011;11726;50.122;8.832;2024-02-26T06:56:21;3.95;;;2.10;;
23113;SDS011;11726;50.122;8.832;2024-02-26T06:58:48;2.70;;;1.48;;
23113;SDS011;11726;50.122;8.832;2024-02-26T07:01:18;3.30;;;1.77;;
23113;SDS011;11726;50.122;8.832;2024-02-26T07:03:45;3.85;;;2.05;;
23113;SDS011;11726;50.122;8.832;2024-02-26T07:06:11;3.35;;;1.67;;
23113;SDS011;11726;50.122;8.832;2024-02-26T07:08:40;4.38;;;2.10;;
23113;SDS011;11726;50.122;8.832;2024-02-26T07:11:07;3.38;;;1.92;;
23113;SDS011;11726;50.122;8.832;2024-02-26T07:13:35;2.72;;;1.80;;
23113;SDS011;11726;50.122;8.832;2024-02-26T07:16:01;2.25;;;1.60;;
23113;SDS011;11726;50.122;8.832;2024-02-26T07:18:28;3.55;;;2.10;;
23113;SDS011;11726;50.122;8.832;2024-02-26T07:20:55;2.47;;;1.50;;
23113;SDS011;11726;50.122;8.832;2024-02-26T07:23:25;5.20;;;1.63;;
23113;SDS011;11726;50.122;8.832;2024-02-26T07:25:52;2.63;;;1.50;;
23113;SDS011;11726;50.122;8.832;2024-02-26T07:28:19;4.03;;;1.77;;
23113;SDS011;11726;50.122;8.832;2024-02-26T07:30:46;2.75;;;1.85;;
23113;SDS011;11726;50.122;8.832;2024-02-26T07:33:13;2.10;;;1.50;;
23113;SDS011;11726;50.122;8.832;2024-02-26T07:35:40;3.75;;;1.58;;
23113;SDS011;11726;50.122;8.832;2024-02-26T07:38:07;5.22;;;1.75;;
23113;SDS011;11726;50.122;8.832;2024-02-26T07:40:44;4.35;;;1.90;;
23113;SDS011;11726;50.122;8.832;2024-02-26T07:43:24;2.13;;;1.58;;
23113;SDS011;11726;50.122;8.832;2024-02-26T07:45:51;3.63;;;2.00;;
23113;SDS011;11726;50.122;8.832;2024-02-26T07:48:18;2.92;;;1.77;;
23113;SDS011;11726;50.122;8.832;2024-02-26T07:50:45;2.47;;;1.45;;
23113;SDS011;11726;50.122;8.832;2024-02-26T07:53:13;2.30;;;1.58;;
23113;SDS011;11726;50.122;8.832;2024-02-26T07:55:39;4.20;;;2.05;;
23113;SDS011;11726;50.122;8.832;2024-02-26T07:58:06;4.95;;;1.90;;
23113;SDS011;11726;50.122;8.832;2024-02-26T08:00:35;3.25;;;1.92;;
23113;SDS011;11726;50.122;8.832;2024-02-26T08:03:01;4.00;;;2.25;;
23113;SDS011;11726;50.122;8.832;2024-02-26T08:05:29;7.82;;;2.78;;
23113;SDS011;11726;50.122;8.832;2024-02-26T08:07:55;13.00;;;4.40;;
23113;SDS011;11726;50.122;8.832;2024-02-26T08:10:24;11.40;;;4.85;;
23113;SDS011;11726;50.122;8.832;2024-02-26T08:12:50;6.10;;;3.20;;
23113;SDS011;11726;50.122;8.832;2024-02-26T08:15:17;9.75;;;2.63;;
23113;SDS011;11726;50.122;8.832;2024-02-26T08:17:45;8.02;;;2.88;;
23113;SDS011;11726;50.122;8.832;2024-02-26T08:20:13;9.20;;;3.53;;
23113;SDS011;11726;50.122;8.832;2024-02-26T08:22:40;15.90;;;5.55;;
23113;SDS011;11726;50.122;8.832;2024-02-26T08:25:07;9.38;;;3.25;;
23113;SDS011;11726;50.122;8.832;2024-02-26T08:27:35;9.95;;;3.75;;
23113;SDS011;11726;50.122;8.832;2024-02-26T08:30:02;6.50;;;3.15;;
23113;SDS011;11726;50.122;8.832;2024-02-26T08:32:29;8.80;;;3.15;;
23113;SDS011;11726;50.122;8.832;2024-02-26T08:34:56;5.00;;;2.60;;
23113;SDS011;11726;50.122;8.832;2024-02-26T08:37:23;3.90;;;2.30;;
23113;SDS011;11726;50.122;8.832;2024-02-26T08:39:49;4.90;;;2.72;;
23113;SDS011;11726;50.122;8.832;2024-02-26T08:42:16;9.57;;;3.03;;
23113;SDS011;11726;50.122;8.832;2024-02-26T08:44:43;6.78;;;2.42;;
23113;SDS011;11726;50.122;8.832;2024-02-26T08:47:09;7.53;;;3.20;;
23113;SDS011;11726;50.122;8.832;2024-02-26T08:49:36;7.47;;;2.95;;
23113;SDS011;11726;50.122;8.832;2024-02-26T08:52:03;6.45;;;2.75;;
23113;SDS011;11726;50.122;8.832;2024-02-26T08:54:30;8.48;;;2.67;;
23113;SDS011;11726;50.122;8.832;2024-02-26T08:56:58;9.88;;;3.28;;
23113;SDS011;11726;50.122;8.832;2024-02-26T08:59:25;6.25;;;3.10;;
23113;SDS011;11726;50.122;8.832;2024-02-26T09:01:52;6.28;;;2.50;;
23113;SDS011;11726;50.122;8.832;2024-02-26T09:04:18;4.88;;;2.95;;
23113;SDS011;11726;50.122;8.832;2024-02-26T09:06:45;6.95;;;2.88;;
23113;SDS011;11726;50.122;8.832;2024-02-26T09:09:12;8.63;;;3.30;;
23113;SDS011;11726;50.122;8.832;2024-02-26T09:11:39;5.85;;;3.30;;
23113;SDS011;11726;50.122;8.832;2024-02-26T09:14:06;6.75;;;3.15;;
23113;SDS011;11726;50.122;8.832;2024-02-26T09:16:32;9.65;;;3.42;;
23113;SDS011;11726;50.122;8.832;2024-02-26T09:18:59;7.68;;;2.83;;
23113;SDS011;11726;50.122;8.832;2024-02-26T09:21:26;7.20;;;3.20;;
23113;SDS011;11726;50.122;8.832;2024-02-26T09:23:52;6.30;;;2.70;;
23113;SDS011;11726;50.122;8.832;2024-02-26T09:26:19;6.63;;;3.13;;
23113;SDS011;11726;50.122;8.832;2024-02-26T09:28:46;5.30;;;2.58;;
23113;SDS011;11726;50.122;8.832;2024-02-26T09:31:13;9.02;;;3.35;;
23113;SDS011;11726;50.122;8.832;2024-02-26T09:33:42;7.18;;;2.97;;
23113;SDS011;11726;50.122;8.832;2024-02-26T09:36:09;6.18;;;2.83;;
23113;SDS011;11726;50.122;8.832;2024-02-26T09:38:37;7.85;;;2.40;;
23113;SDS011;11726;50.122;8.832;2024-02-26T09:41:21;6.88;;;3.00;;
23113;SDS011;11726;50.122;8.832;2024-02-26T09:43:48;8.48;;;3.00;;
23113;SDS011;11726;50.122;8.832;2024-02-26T09:46:16;9.93;;;2.90;;
23113;SDS011;11726;50.122;8.832;2024-02-26T09:48:46;8.65;;;3.17;;
23113;SDS011;11726;50.122;8.832;2024-02-26T09:51:14;6.93;;;2.58;;
23113;SDS011;11726;50.122;8.832;2024-02-26T09:53:43;4.47;;;2.75;;
23113;SDS011;11726;50.122;8.832;2024-02-26T09:56:11;5.60;;;2.78;;
23113;SDS011;11726;50.122;8.832;2024-02-26T09:58:39;5.78;;;2.40;;
23113;SDS011;11726;50.122;8.832;2024-02-26T10:01:10;3.53;;;2.30;;
23113;SDS011;11726;50.122;8.832;2024-02-26T10:03:40;4.60;;;2.58;;
23113;SDS011;11726;50.122;8.832;2024-02-26T10:06:08;7.72;;;2.75;;
23113;SDS011;11726;50.122;8.832;2024-02-26T10:08:35;5.82;;;3.00;;
23113;SDS011;11726;50.122;8.832;2024-02-26T10:11:06;5.60;;;2.80;;
23113;SDS011;11726;50.122;8.832;2024-02-26T10:13:36;5.97;;;2.45;;
23113;SDS011;11726;50.122;8.832;2024-02-26T10:16:04;6.72;;;3.95;;
23113;SDS011;11726;50.122;8.832;2024-02-26T10:21:31;6.75;;;2.70;;
23113;SDS011;11726;50.122;8.832;2024-02-26T10:23:58;4.40;;;2.72;;
23113;SDS011;11726;50.122;8.832;2024-02-26T10:26:25;7.00;;;2.38;;
23113;SDS011;11726;50.122;8.832;2024-02-26T10:28:51;5.03;;;2.80;;
23113;SDS011;11726;50.122;8.832;2024-02-26T10:31:21;3.83;;;2.50;;
23113;SDS011;11726;50.122;8.832;2024-02-26T10:33:48;5.60;;;2.53;;
23113;SDS011;11726;50.122;8.832;2024-02-26T10:36:16;7.72;;;2.90;;
23113;SDS011;11726;50.122;8.832;2024-02-26T10:38:43;7.82;;;2.85;;
23113;SDS011;11726;50.122;8.832;2024-02-26T10:41:12;8.52;;;2.88;;
23113;SDS011;11726;50.122;8.832;2024-02-26T10:43:42;6.50;;;2.83;;
23113;SDS011;11726;50.122;8.832;2024-02-26T10:46:10;5.97;;;2.70;;
23113;SDS011;11726;50.122;8.832;2024-02-26T10:48:36;9.38;;;3.47;;
23113;SDS011;11726;50.122;8.832;2024-02-26T10:51:03;4.95;;;2.67;;
23113;SDS011;11726;50.122;8.832;2024-02-26T10:53:31;13.15;;;3.67;;
23113;SDS011;11726;50.122;8.832;2024-02-26T10:56:03;3.08;;;2.03;;
23113;SDS011;11726;50.122;8.832;2024-02-26T10:58:31;6.45;;;2.50;;
23113;SDS011;11726;50.122;8.832;2024-02-26T11:00:58;6.80;;;2.88;;
23113;SDS011;11726;50.122;8.832;2024-02-26T11:03:26;5.40;;;2.83;;
23113;SDS011;11726;50.122;8.832;2024-02-26T11:05:54;4.25;;;2.38;;
23113;SDS011;11726;50.122;8.832;2024-02-26T11:08:24;4.70;;;2.60;;
23113;SDS011;11726;50.122;8.832;2024-02-26T11:10:53;4.63;;;2.72;;
23113;SDS011;11726;50.122;8.832;2024-02-26T11:13:21;3.58;;;2.00;;
23113;SDS011;11726;50.122;8.832;2024-02-26T11:15:49;6.05;;;2.38;;
23113;SDS011;11726;50.122;8.832;2024-02-26T11:18:17;7.25;;;2.30;;
23113;SDS011;11726;50.122;8.832;2024-02-26T11:20:46;6.20;;;2.45;;
23113;SDS011;11726;50.122;8.832;2024-02-26T11:23:14;5.53;;;2.97;;
23113;SDS011;11726;50.122;8.832;2024-02-26T11:25:41;5.97;;;2.08;;
23113;SDS011;11726;50.122;8.832;2024-02-26T11:28:10;3.88;;;2.28;;
23113;SDS011;11726;50.122;8.832;2024-02-26T11:30:41;6.05;;;2.63;;
23113;SDS011;11726;50.122;8.832;2024-02-26T11:33:11;3.72;;;2.10;;
23113;SDS011;11726;50.122;8.832;2024-02-26T11:35:39;4.47;;;2.30;;
23113;SDS011;11726;50.122;8.832;2024-02-26T11:38:06;3.65;;;2.15;;
23113;SDS011;11726;50.122;8.832;2024-02-26T11:40:37;3.80;;;2.05;;
23113;SDS011;11726;50.122;8.832;2024-02-26T11:43:08;5.18;;;2.70;;
23113;SDS011;11726;50.122;8.832;2024-02-26T11:48:15;5.38;;;2.45;;
23113;SDS011;11726;50.122;8.832;2024-02-26T11:50:52;3.92;;;2.33;;
23113;SDS011;11726;50.122;8.832;2024-02-26T11:53:27;7.68;;;2.70;;
23113;SDS011;11726;50.122;8.832;2024-02-26T11:56:13;4.57;;;2.15;;
23113;SDS011;11726;50.122;8.832;2024-02-26T11:58:59;4.68;;;2.80;;
23113;SDS011;11726;50.122;8.832;2024-02-26T12:01:46;4.53;;;2.53;;
23113;SDS011;11726;50.122;8.832;2024-02-26T12:04:18;4.68;;;2.40;;
23113;SDS011;11726;50.122;8.832;2024-02-26T12:06:50;3.58;;;1.85;;
23113;SDS011;11726;50.122;8.832;2024-02-26T12:14:52;4.45;;;2.80;;
23113;SDS011;11726;50.122;8.832;2024-02-26T12:17:22;4.60;;;2.25;;
23113;SDS011;11726;50.122;8.832;2024-02-26T12:19:50;4.45;;;2.47;;
23113;SDS011;11726;50.122;8.832;2024-02-26T12:22:22;4.80;;;2.47;;
23113;SDS011;11726;50.122;8.832;2024-02-26T12:25:00;3.92;;;2.35;;
23113;SDS011;11726;50.122;8.832;2024-02-26T12:27:29;5.55;;;2.13;;
23113;SDS011;11726;50.122;8.832;2024-02-26T12:29:56;4.03;;;2.22;;
23113;SDS011;11726;50.122;8.832;2024-02-26T12:32:23;5.20;;;2.22;;
23113;SDS011;11726;50.122;8.832;2024-02-26T12:34:49;4.82;;;2.20;;
23113;SDS011;11726;50.122;8.832;2024-02-26T12:37:16;8.27;;;2.70;;
23113;SDS011;11726;50.122;8.832;2024-02-26T12:39:44;2.72;;;2.00;;
23113;SDS011;11726;50.122;8.832;2024-02-26T12:42:12;5.43;;;2.28;;
23113;SDS011;11726;50.122;8.832;2024-02-26T12:44:38;3.95;;;2.22;;
23113;SDS011;11726;50.122;8.832;2024-02-26T12:47:05;4.78;;;2.00;;
23113;SDS011;11726;50.122;8.832;2024-02-26T12:49:32;4.78;;;2.15;;
23113;SDS011;11726;50.122;8.832;2024-02-26T12:51:59;4.03;;;2.30;;
23113;SDS011;11726;50.122;8.832;2024-02-26T12:54:29;5.03;;;2.47;;
23113;SDS011;11726;50.122;8.832;2024-02-26T12:56:59;5.43;;;2.50;;
23113;SDS011;11726;50.122;8.832;2024-02-26T12:59:28;4.78;;;2.80;;
23113;SDS011;11726;50.122;8.832;2024-02-26T13:01:56;5.40;;;2.70;;
23113;SDS011;11726;50.122;8.832;2024-02-26T13:04:23;5.75;;;2.75;;
23113;SDS011;11726;50.122;8.832;2024-02-26T13:06:52;3.63;;;2.25;;
23113;SDS011;11726;50.122;8.832;2024-02-26T13:09:18;5.70;;;2.20;;
23113;SDS011;11726;50.122;8.832;2024-02-26T13:11:45;4.32;;;2.60;;
23113;SDS011;11726;50.122;8.832;2024-02-26T13:14:20;20.50;;;7.95;;
23113;SDS011;11726;50.122;8.832;2024-02-26T13:16:59;10.45;;;4.03;;
23113;SDS011;11726;50.122;8.832;2024-02-26T13:19:27;6.15;;;3.28;;
23113;SDS011;11726;50.122;8.832;2024-02-26T13:21:54;3.83;;;2.55;;
23113;SDS011;11726;50.122;8.832;2024-02-26T13:24:21;11.57;;;5.00;;
23113;SDS011;11726;50.122;8.832;2024-02-26T13:26:55;5.50;;;2.85;;
23113;SDS011;11726;50.122;8.832;2024-02-26T13:29:22;7.18;;;2.67;;
23113;SDS011;11726;50.122;8.832;2024-02-26T13:31:53;5.10;;;2.63;;
23113;SDS011;11726;50.122;8.832;2024-02-26T13:34:27;3.88;;;2.45;;
23113;SDS011;11726;50.122;8.832;2024-02-26T13:36:56;2.88;;;2.10;;
23113;SDS011;11726;50.122;8.832;2024-02-26T13:39:23;6.07;;;2.05;;
23113;SDS011;11726;50.122;8.832;2024-02-26T13:41:51;3.88;;;1.80;;
23113;SDS011;11726;50.122;8.832;2024-02-26T13:44:19;3.78;;;1.95;;
23113;SDS011;11726;50.122;8.832;2024-02-26T13:46:46;5.95;;;3.00;;
23113;SDS011;11726;50.122;8.832;2024-02-26T13:49:14;6.25;;;2.85;;
23113;SDS011;11726;50.122;8.832;2024-02-26T13:51:40;5.70;;;3.13;;
23113;SDS011;11726;50.122;8.832;2024-02-26T13:54:07;4.72;;;2.53;;
23113;SDS011;11726;50.122;8.832;2024-02-26T13:56:36;4.57;;;2.20;;
23113;SDS011;11726;50.122;8.832;2024-02-26T13:59:04;2.75;;;1.90;;
23113;SDS011;11726;50.122;8.832;2024-02-26T14:01:31;4.85;;;2.13;;
23113;SDS011;11726;50.122;8.832;2024-02-26T14:03:59;5.43;;;1.90;;
23113;SDS011;11726;50.122;8.832;2024-02-26T14:06:28;4.55;;;2.00;;
23113;SDS011;11726;50.122;8.832;2024-02-26T14:08:57;4.18;;;2.00;;
23113;SDS011;11726;50.122;8.832;2024-02-26T14:11:24;2.42;;;1.55;;
23113;SDS011;11726;50.122;8.832;2024-02-26T14:13:51;3.20;;;1.77;;
23113;SDS011;11726;50.122;8.832;2024-02-26T14:16:18;3.70;;;2.13;;
23113;SDS011;11726;50.122;8.832;2024-02-26T14:18:46;3.72;;;1.73;;
23113;SDS011;11726;50.122;8.832;2024-02-26T14:21:13;2.83;;;2.08;;
23113;SDS011;11726;50.122;8.832;2024-02-26T14:23:40;6.10;;;1.98;;
23113;SDS011;11726;50.122;8.832;2024-02-26T14:26:08;3.40;;;1.55;;
23113;SDS011;11726;50.122;8.832;2024-02-26T14:28:35;3.53;;;1.90;;
23113;SDS011;11726;50.122;8.832;2024-02-26T14:31:02;6.00;;;3.60;;
23113;SDS011;11726;50.122;8.832;2024-02-26T14:33:31;3.08;;;1.70;;
23113;SDS011;11726;50.122;8.832;2024-02-26T14:35:59;5.80;;;2.85;;
23113;SDS011;11726;50.122;8.832;2024-02-26T14:38:25;3.25;;;1.60;;
23113;SDS011;11726;50.122;8.832;2024-02-26T14:40:52;1.85;;;1.60;;
23113;SDS011;11726;50.122;8.832;2024-02-26T14:43:18;4.15;;;1.85;;
23113;SDS011;11726;50.122;8.832;2024-02-26T14:45:45;3.25;;;1.70;;
23113;SDS011;11726;50.122;8.832;2024-02-26T14:48:12;3.90;;;2.08;;
23113;SDS011;11726;50.122;8.832;2024-02-26T14:50:39;2.40;;;1.92;;
23113;SDS011;11726;50.122;8.832;2024-02-26T14:53:05;2.80;;;1.80;;
23113;SDS011;11726;50.122;8.832;2024-02-26T14:55:32;2.22;;;1.73;;
23113;SDS011;11726;50.122;8.832;2024-02-26T14:58:00;4.50;;;1.83;;
23113;SDS011;11726;50.122;8.832;2024-02-26T15:00:27;2.53;;;1.70;;
23113;SDS011;11726;50.122;8.832;2024-02-26T15:02:53;4.68;;;1.55;;